Fort Ransom, North Dakota
Current Conditions -  °F | °C
As of 4:15 AM on Sunday 26 Oct 2014 (Local Time) from KGWR Reporting Station
Clear Clear  
Wind Chill: 32°   Ceiling: Unl
Heat Index: 37°   Visibility: 10mi
Dew Point: 32°   Wind: 7mph
Humidity: 81%   Direction: 120°ESE
Pressure: 29.93"   Gusts: NA
Location:  46.52°N, 97.93°W
Report Text: KGWR 260915Z AUTO 12006KT 10SM CLR 03/00 A2993 RMK A01 P000
Loading
Personal Weather Stations






























Interactive Weather Map
Tropical Storm Tracking
New forecast layout! Learn more

10-Day Weather Forecast

Advertisements
Track Severe Weather on mobile